createdAt,value
2023-02-05T00:02:27.999Z,98.10
2023-02-05T00:05:32.532Z,98.60
2023-02-05T00:08:08.866Z,97.50
2023-02-05T00:10:46.311Z,97.40
2023-02-05T00:13:54.393Z,98.00
2023-02-05T00:16:33.217Z,97.20
2023-02-05T00:19:22.428Z,98.30
2023-02-05T00:21:58.018Z,98.40
2023-02-05T00:24:33.173Z,97.80
2023-02-05T00:27:11.835Z,98.20
2023-02-05T00:29:48.582Z,97.90
2023-02-05T00:32:25.145Z,97.90
2023-02-05T00:35:01.322Z,97.80
2023-02-05T00:37:39.340Z,98.10
2023-02-05T00:40:16.485Z,98.10
2023-02-05T00:43:25.356Z,98.10
2023-02-05T00:46:50.723Z,98.10
2023-02-05T00:49:31.165Z,98.70
2023-02-05T00:52:06.786Z,98.70
2023-02-05T00:54:41.953Z,98.70
2023-02-05T00:57:17.082Z,98.60
2023-02-05T00:59:55.671Z,98.50
2023-02-05T01:02:32.111Z,98.40
2023-02-05T01:05:07.403Z,97.80
2023-02-05T01:07:42.538Z,97.20
2023-02-05T01:10:21.944Z,97.70
2023-02-05T01:12:57.198Z,97.70
2023-02-05T01:15:39.449Z,98.00
2023-02-05T01:18:15.474Z,97.90
2023-02-05T01:20:55.260Z,97.70
2023-02-05T01:23:30.859Z,97.40
2023-02-05T01:26:08.073Z,97.20
2023-02-05T01:28:56.041Z,97.20
2023-02-05T01:31:35.521Z,96.80
2023-02-05T01:34:19.157Z,96.30
2023-02-05T01:37:10.577Z,95.30
2023-02-05T01:40:00.465Z,96.30
2023-02-05T01:42:43.738Z,96.40
2023-02-05T01:46:03.565Z,96.80
2023-02-05T01:48:43.738Z,96.90
2023-02-05T01:51:51.711Z,95.40
2023-02-05T01:55:07.622Z,96.70
2023-02-05T01:57:49.451Z,96.50
2023-02-05T02:00:26.776Z,96.70
2023-02-05T02:03:22.955Z,96.50
2023-02-05T02:06:01.715Z,97.10
2023-02-05T02:09:25.968Z,96.70
2023-02-05T02:12:02.438Z,97.60
2023-02-05T02:14:39.700Z,97.80
2023-02-05T02:17:18.935Z,97.50
2023-02-05T02:20:03.725Z,97.20
2023-02-05T02:23:15.345Z,98.10
2023-02-05T02:26:13.149Z,98.10
2023-02-05T02:29:05.125Z,98.60
2023-02-05T02:32:03.567Z,99.10
2023-02-05T02:34:51.588Z,99.10
2023-02-05T02:37:37.846Z,98.90
2023-02-05T02:40:32.921Z,98.80
2023-02-05T02:43:15.982Z,99.20
2023-02-05T02:46:05.033Z,99.40
2023-02-05T02:48:48.164Z,99.60
2023-02-05T02:51:25.912Z,99.70
2023-02-05T02:54:03.456Z,99.00
2023-02-05T02:56:44.380Z,99.90
2023-02-05T02:59:22.500Z,99.90
2023-02-05T03:02:02.856Z,99.90
2023-02-05T03:04:52.029Z,99.90
2023-02-05T03:18:15.435Z,99.90
2023-02-05T03:20:57.972Z,99.90
2023-02-05T03:32:32.822Z,99.90
2023-02-05T03:35:25.496Z,99.90
2023-02-05T03:38:34.852Z,99.90
2023-02-05T03:41:50.009Z,99.90
2023-02-05T03:44:38.210Z,99.90
2023-02-05T03:47:57.396Z,99.90
2023-02-05T03:50:42.260Z,99.90
2023-02-05T03:53:28.138Z,99.90
2023-02-05T03:56:10.698Z,99.90
2023-02-05T03:58:51.288Z,99.90
2023-02-05T04:01:32.961Z,99.90
2023-02-05T04:04:11.020Z,99.90
2023-02-05T04:06:48.611Z,99.90
2023-02-05T04:09:24.784Z,99.90
2023-02-05T04:12:03.150Z,99.90
2023-02-05T04:14:39.243Z,99.90
2023-02-05T04:17:16.599Z,99.90
2023-02-05T04:19:55.424Z,99.90
2023-02-05T04:35:39.411Z,99.90
2023-02-05T04:49:28.610Z,99.90
2023-02-05T04:52:04.766Z,99.90
2023-02-05T04:55:11.424Z,99.90
2023-02-05T04:57:46.663Z,99.90
2023-02-05T05:00:22.227Z,99.90
2023-02-05T05:05:51.736Z,99.90
2023-02-05T05:22:15.731Z,99.90
2023-02-05T05:24:52.140Z,99.90
2023-02-05T05:30:03.846Z,99.90
2023-02-05T05:36:04.846Z,99.90
2023-02-05T05:38:42.564Z,99.90
2023-02-05T05:41:43.068Z,99.90
2023-02-05T05:50:13.489Z,99.90
2023-02-05T05:52:48.781Z,99.90
2023-02-05T05:58:02.886Z,99.90
2023-02-05T06:00:42.468Z,99.90
2023-02-05T06:03:19.583Z,99.90
2023-02-05T06:08:44.186Z,99.90
2023-02-05T08:23:14.676Z,99.90
2023-02-05T08:25:51.104Z,99.90
2023-02-05T08:28:28.920Z,99.90
2023-02-05T08:31:19.239Z,99.90
2023-02-05T08:34:03.041Z,99.90
2023-02-05T15:23:52.991Z,99.90
2023-02-05T15:26:33.540Z,99.90
2023-02-05T15:29:23.345Z,99.90
2023-02-05T16:10:02.391Z,99.90
2023-02-05T16:12:37.814Z,99.90
2023-02-05T16:15:20.107Z,99.90
2023-02-05T16:18:02.508Z,99.90
2023-02-05T16:20:44.850Z,99.90
2023-02-05T16:23:29.052Z,99.90
2023-02-05T16:42:12.464Z,99.90
2023-02-05T16:45:09.496Z,99.90
2023-02-05T17:01:09.558Z,99.90
2023-02-05T17:14:31.557Z,99.90
2023-02-05T17:17:15.514Z,99.90
2023-02-05T17:33:22.798Z,99.90
2023-02-05T19:33:06.373Z,99.90
2023-02-05T19:35:43.383Z,99.90
2023-02-05T19:38:21.925Z,99.90
2023-02-05T19:40:57.631Z,99.90
2023-02-05T19:43:34.434Z,99.90
2023-02-05T19:54:07.844Z,99.90
2023-02-05T19:56:43.565Z,99.90
2023-02-05T20:01:57.003Z,99.90
2023-02-05T20:04:32.550Z,99.90
2023-02-05T20:07:24.689Z,99.90
2023-02-05T20:10:04.868Z,99.90
2023-02-05T20:12:40.395Z,99.90
2023-02-05T20:15:17.431Z,99.90
2023-02-05T20:21:12.584Z,99.90
2023-02-05T20:23:48.436Z,99.90
2023-02-05T20:26:26.389Z,99.90
2023-02-05T20:29:18.794Z,99.90
2023-02-05T20:31:57.220Z,99.90
2023-02-05T20:34:35.737Z,99.90
2023-02-05T20:37:13.670Z,99.90
2023-02-05T20:39:50.484Z,99.90
2023-02-05T20:42:33.221Z,99.90
2023-02-05T20:45:08.819Z,99.90
2023-02-05T20:47:45.307Z,99.90
2023-02-05T20:50:20.753Z,99.90
2023-02-05T20:53:02.911Z,99.90
2023-02-05T20:55:39.231Z,99.90
2023-02-05T20:58:33.593Z,99.90
2023-02-05T21:01:13.422Z,99.90
2023-02-05T21:03:50.089Z,99.90
2023-02-05T21:06:26.881Z,99.90
2023-02-05T21:09:02.655Z,99.90
2023-02-05T21:11:44.831Z,99.90
2023-02-05T21:14:23.062Z,99.90
2023-02-05T21:17:02.523Z,99.90
2023-02-05T21:19:42.789Z,99.90
2023-02-05T21:22:17.966Z,99.90
2023-02-05T21:24:56.928Z,99.90
2023-02-05T21:27:40.086Z,99.90
2023-02-05T21:30:22.588Z,99.90
2023-02-05T21:32:58.594Z,99.90
2023-02-05T21:35:34.205Z,99.90
2023-02-05T21:38:10.090Z,99.90
2023-02-05T21:40:45.813Z,99.90
2023-02-05T21:43:32.319Z,99.90
2023-02-05T21:46:15.185Z,99.90
2023-02-05T21:48:55.094Z,99.90
2023-02-05T21:51:31.585Z,99.90
2023-02-05T21:54:07.947Z,99.90
2023-02-05T21:56:50.976Z,99.90
2023-02-05T21:59:27.986Z,99.90
2023-02-05T22:02:05.398Z,99.90
2023-02-05T22:04:41.407Z,99.90
2023-02-05T22:07:17.369Z,99.90
2023-02-05T22:09:54.488Z,99.90
2023-02-05T22:12:30.069Z,99.90
2023-02-05T22:15:18.532Z,99.90
2023-02-05T22:17:56.262Z,99.90
2023-02-05T22:20:32.075Z,99.90
2023-02-05T22:23:07.429Z,99.90
2023-02-05T22:25:43.192Z,99.90
2023-02-05T22:28:35.588Z,99.90
2023-02-05T22:31:14.029Z,99.90
2023-02-05T22:33:53.661Z,99.90
2023-02-05T22:36:33.635Z,99.90
2023-02-05T22:39:10.852Z,99.90
2023-02-05T22:41:47.828Z,99.90
2023-02-05T22:44:23.666Z,99.90
2023-02-05T22:46:59.933Z,99.90
2023-02-05T22:49:37.727Z,99.90
2023-02-05T22:52:19.144Z,99.90
2023-02-05T22:55:03.204Z,99.90
2023-02-05T22:57:45.831Z,99.90
2023-02-05T23:00:32.198Z,99.90
2023-02-05T23:03:08.528Z,99.90
2023-02-05T23:05:46.880Z,99.90
2023-02-05T23:08:25.230Z,99.90
2023-02-05T23:11:01.678Z,99.90
2023-02-05T23:13:41.004Z,99.90
2023-02-05T23:16:26.865Z,99.90
2023-02-05T23:19:12.615Z,99.90
2023-02-05T23:21:50.749Z,99.90
2023-02-05T23:24:35.110Z,99.90
2023-02-05T23:27:15.167Z,99.90
2023-02-05T23:30:00.568Z,99.90
2023-02-05T23:32:47.385Z,99.90
2023-02-05T23:35:23.496Z,99.90
2023-02-05T23:38:00.658Z,99.90
2023-02-05T23:40:36.575Z,99.90
2023-02-05T23:43:16.088Z,99.90
2023-02-05T23:45:51.871Z,99.90
2023-02-05T23:48:27.854Z,99.90
2023-02-05T23:51:03.393Z,99.90
2023-02-05T23:53:41.113Z,99.90
2023-02-05T23:56:16.601Z,99.90
2023-02-05T23:58:52.325Z,99.90
